Ginostra M — IBRP — position and weather

sailwx.info

Track history (hours):
 
Tides and Currents Weather Stations Pressure Air Temp Water Temp Dewpoint Dewpoint Depression Visibility Wind Speed Wind Dir Waves Ship Positions

Ginostra M

Last reported at 2017-Oct-17 03:58 UTC. Time now 2017-Oct-17 04:23 UTC.
Position N 36°10' W 005°24'.

Length 113 m; draft 4.7 m.

Type: Tanker. MMSI: 247162900.

Date/timePositionNaut miles runAvg speedWind from/ knotsBaromVisibWave heightAir tempDewpointWater temp
2017-Oct-17 03:58N 36°10' W 005°24'0 0.0
2017-Oct-17 03:14N 36°10' W 005°24'0 0.0
2017-Oct-17 02:56N 36°10' W 005°24'0 0.0
2017-Oct-17 02:28N 36°10' W 005°24'0 0.0
2017-Oct-17 01:58N 36°10' W 005°24'0 0.0
2017-Oct-17 01:22N 36°10' W 005°24'0 0.0
2017-Oct-17 00:58N 36°10' W 005°24'0 0.0
2017-Oct-16 21:22N 36°10' W 005°24'6 1.2
2017-Oct-16 16:25N 36°04' W 005°23'2 5.4
2017-Oct-16 16:00N 36°03' W 005°20'611.7
2017-Oct-16 15:30N 36°04' W 005°13'  
2017-Oct-14 09:42N 37°33' W 001°01'3 9.5
2017-Oct-14 09:24N 37°32' W 000°58'511.7
2017-Oct-14 09:00N 37°29' W 000°53'611.5
2017-Oct-14 08:30N 37°29' W 000°46'611.6
2017-Oct-14 08:00N 37°31' W 000°39'612.1
2017-Oct-14 07:30N 37°35' W 000°33'612.2
2017-Oct-14 07:00N 37°40' W 000°29'612.3
2017-Oct-14 06:30N 37°45' W 000°24'1612.3
2017-Oct-14 05:10N 37°59' W 000°13'212.3
2017-Oct-14 05:00N 38°01' W 000°12'812.3
2017-Oct-14 04:23N 38°07' W 000°06'612.4
2017-Oct-14 03:56N 38°11' W 000°03'1112.3
2017-Oct-14 03:02N 38°21' E 000°05'012.0
2017-Oct-14 03:00N 38°21' E 000°05'612.1
2017-Oct-14 02:30N 38°26' E 000°10'712.1
2017-Oct-14 01:57N 38°32' E 000°14'612.0
2017-Oct-14 01:29N 38°36' E 000°18'4 0.1
2017-Oct-11 21:32N 38°32' E 000°20'013.5
2017-Oct-11 21:30N 38°32' E 000°19'713.6
2017-Oct-11 21:00N 38°26' E 000°15'713.5
2017-Oct-11 20:30N 38°20' E 000°10'713.3
2017-Oct-11 20:00N 38°15' E 000°06'713.2
2017-Oct-11 19:30N 38°09' E 000°01'713.2
2017-Oct-11 19:00N 38°03' W 000°03'713.1
2017-Oct-11 18:27N 37°57' W 000°09'913.1
2017-Oct-11 17:46N 37°51' W 000°16'713.0
2017-Oct-11 17:16N 37°45' W 000°21'312.8
2017-Oct-11 17:00N 37°42' W 000°23'  
2017-Oct-07 19:53N 37°06' W 006°53'  
Track history (hours):
 
Tides and Currents Weather Stations Pressure Air Temp Water Temp Dewpoint Dewpoint Depression Visibility Wind Speed Wind Dir Waves Ship Positions

Ginostra M

Last reported at 2017-Oct-17 03:58 UTC. Time now 2017-Oct-17 04:23 UTC.
Position N 36°10' W 005°24'.

Length 113 m; draft 4.7 m.

Type: Tanker. MMSI: 247162900.

Date/timePositionNaut miles runAvg speedWind from/ knotsBaromVisibWave heightAir tempDewpointWater temp
2017-Oct-17 03:58N 36°10' W 005°24'0 0.0
2017-Oct-17 03:14N 36°10' W 005°24'0 0.0
2017-Oct-17 02:56N 36°10' W 005°24'0 0.0
2017-Oct-17 02:28N 36°10' W 005°24'0 0.0
2017-Oct-17 01:58N 36°10' W 005°24'0 0.0
2017-Oct-17 01:22N 36°10' W 005°24'0 0.0
2017-Oct-17 00:58N 36°10' W 005°24'0 0.0
2017-Oct-16 21:22N 36°10' W 005°24'6 1.2
2017-Oct-16 16:25N 36°04' W 005°23'2 5.4
2017-Oct-16 16:00N 36°03' W 005°20'611.7
2017-Oct-16 15:30N 36°04' W 005°13'  
2017-Oct-14 09:42N 37°33' W 001°01'3 9.5
2017-Oct-14 09:24N 37°32' W 000°58'511.7
2017-Oct-14 09:00N 37°29' W 000°53'611.5
2017-Oct-14 08:30N 37°29' W 000°46'611.6
2017-Oct-14 08:00N 37°31' W 000°39'612.1
2017-Oct-14 07:30N 37°35' W 000°33'612.2
2017-Oct-14 07:00N 37°40' W 000°29'612.3
2017-Oct-14 06:30N 37°45' W 000°24'1612.3
2017-Oct-14 05:10N 37°59' W 000°13'212.3
2017-Oct-14 05:00N 38°01' W 000°12'812.3
2017-Oct-14 04:23N 38°07' W 000°06'612.4
2017-Oct-14 03:56N 38°11' W 000°03'1112.3
2017-Oct-14 03:02N 38°21' E 000°05'012.0
2017-Oct-14 03:00N 38°21' E 000°05'612.1
2017-Oct-14 02:30N 38°26' E 000°10'712.1
2017-Oct-14 01:57N 38°32' E 000°14'612.0
2017-Oct-14 01:29N 38°36' E 000°18'4 0.1
2017-Oct-11 21:32N 38°32' E 000°20'013.5
2017-Oct-11 21:30N 38°32' E 000°19'713.6
2017-Oct-11 21:00N 38°26' E 000°15'713.5
2017-Oct-11 20:30N 38°20' E 000°10'713.3
2017-Oct-11 20:00N 38°15' E 000°06'713.2
2017-Oct-11 19:30N 38°09' E 000°01'713.2
2017-Oct-11 19:00N 38°03' W 000°03'713.1
2017-Oct-11 18:27N 37°57' W 000°09'913.1
2017-Oct-11 17:46N 37°51' W 000°16'713.0
2017-Oct-11 17:16N 37°45' W 000°21'312.8
2017-Oct-11 17:00N 37°42' W 000°23'  
2017-Oct-07 19:53N 37°06' W 006°53'  

Dump ship's entire track history